Time;durP1;ratioP1;P1;durP2;ratioP2;P2;SDS_P1;SDS_P2;PMS_P1;PMS_P2;Temp;Humidity;BMP_temperature;BMP_pressure;BME280_temperature;BME280_humidity;BME280_pressure;Samples;Min_cycle;Max_cycle;Signal;HPM_P1;HPM_P2
2022/03/09 00:01:53;;;;;;;24.57;12.70;;;2.40;99.90;;;;;;5159816;28;20534;-50
2022/03/09 00:04:24;;;;;;;24.50;14.37;;;2.40;99.90;;;;;;5158524;28;20213;-49
2022/03/09 00:06:55;;;;;;;23.77;14.43;;;2.40;99.90;;;;;;5159041;28;20573;-49
2022/03/09 00:09:25;;;;;;;28.00;14.67;;;2.40;99.90;;;;;;5162293;28;20456;-50
2022/03/09 00:11:56;;;;;;;23.63;14.80;;;2.40;99.90;;;;;;5162030;28;20190;-49
2022/03/09 00:14:26;;;;;;;20.00;12.40;;;2.30;99.90;;;;;;5157989;28;20193;-49
2022/03/09 00:16:57;;;;;;;26.60;13.83;;;2.30;99.90;;;;;;5164303;28;20644;-49
2022/03/09 00:19:28;;;;;;;26.23;14.47;;;2.20;99.90;;;;;;5171956;28;20181;-50
2022/03/09 00:21:58;;;;;;;17.63;12.33;;;2.20;99.90;;;;;;5147297;28;20196;-49
2022/03/09 00:24:29;;;;;;;26.10;13.63;;;2.20;99.90;;;;;;5165558;28;20220;-50
2022/03/09 00:27:00;;;;;;;23.53;13.23;;;2.20;99.90;;;;;;5162774;28;20196;-49
2022/03/09 00:29:30;;;;;;;25.10;13.83;;;2.20;99.90;;;;;;5161881;28;20181;-48
2022/03/09 00:32:01;;;;;;;31.57;16.87;;;2.10;99.90;;;;;;5150682;28;21202;-49
2022/03/09 00:34:33;;;;;;;27.13;13.70;;;2.10;99.90;;;;;;5169217;28;20213;-50
2022/03/09 00:37:03;;;;;;;21.63;13.07;;;2.10;99.90;;;;;;5163296;28;20464;-49
2022/03/09 00:39:34;;;;;;;21.23;13.40;;;2.10;99.90;;;;;;5165839;28;20454;-49
2022/03/09 00:42:05;;;;;;;22.90;13.63;;;2.10;99.90;;;;;;5165403;28;20537;-49
2022/03/09 00:44:36;;;;;;;32.70;15.47;;;2.00;99.90;;;;;;5182320;28;20188;-50
2022/03/09 00:47:06;;;;;;;30.70;17.03;;;2.00;99.90;;;;;;5170146;28;20483;-49
2022/03/09 00:49:37;;;;;;;30.43;15.30;;;2.00;99.90;;;;;;5162265;28;20188;-50
2022/03/09 00:52:07;;;;;;;34.57;18.30;;;2.00;99.90;;;;;;5159995;28;20193;-50
2022/03/09 00:54:38;;;;;;;29.70;16.90;;;2.10;99.90;;;;;;5173506;28;20503;-48
2022/03/09 00:57:08;;;;;;;33.70;16.30;;;2.10;99.90;;;;;;5169585;28;20637;-49
2022/03/09 00:59:39;;;;;;;30.37;16.93;;;2.10;99.90;;;;;;5166087;28;20709;-48
2022/03/09 01:02:09;;;;;;;30.40;16.93;;;2.10;99.90;;;;;;5170039;28;20215;-51
2022/03/09 01:04:40;;;;;;;34.33;18.00;;;2.20;99.90;;;;;;5160508;28;20237;-49
2022/03/09 01:07:11;;;;;;;36.03;18.87;;;2.20;99.90;;;;;;5152560;28;20281;-48
2022/03/09 01:09:42;;;;;;;37.13;19.37;;;2.20;99.90;;;;;;5160411;28;20190;-51
2022/03/09 01:12:12;;;;;;;33.03;18.83;;;2.20;99.90;;;;;;5170623;28;20188;-51
2022/03/09 01:14:43;;;;;;;37.33;18.87;;;2.20;99.90;;;;;;5159608;28;20577;-50
2022/03/09 01:17:13;;;;;;;39.17;18.27;;;2.30;99.90;;;;;;5167871;28;20691;-50
2022/03/09 01:19:44;;;;;;;27.70;17.73;;;2.20;99.90;;;;;;5161399;28;20220;-48
2022/03/09 01:22:14;;;;;;;39.07;19.07;;;2.20;99.90;;;;;;5164890;28;20189;-50
2022/03/09 01:24:45;;;;;;;45.33;21.30;;;2.20;99.90;;;;;;5167836;28;20197;-51
2022/03/09 01:27:16;;;;;;;36.97;19.67;;;2.10;99.90;;;;;;5167516;28;20212;-48
2022/03/09 01:29:47;;;;;;;42.93;20.80;;;2.10;99.90;;;;;;5164867;28;20436;-49
2022/03/09 01:32:19;;;;;;;40.30;20.00;;;2.00;99.90;;;;;;5166754;28;20250;-49
2022/03/09 01:34:50;;;;;;;38.97;21.07;;;2.00;99.90;;;;;;5168808;28;20179;-50
2022/03/09 01:37:20;;;;;;;38.77;21.40;;;2.00;99.90;;;;;;5147732;28;20467;-50
2022/03/09 01:39:51;;;;;;;37.40;20.50;;;2.00;99.90;;;;;;5163885;28;20181;-49
2022/03/09 01:42:22;;;;;;;44.27;21.33;;;1.90;99.90;;;;;;5160426;28;20185;-49
2022/03/09 01:44:53;;;;;;;60.10;24.40;;;1.80;99.90;;;;;;5157334;28;20199;-49
2022/03/09 01:47:23;;;;;;;40.00;20.77;;;1.80;99.90;;;;;;5167463;28;20205;-50
2022/03/09 01:49:54;;;;;;;37.87;19.97;;;1.70;99.90;;;;;;5153006;28;20189;-49
2022/03/09 01:52:25;;;;;;;36.63;20.80;;;1.70;99.90;;;;;;5171754;28;20257;-50
2022/03/09 01:54:55;;;;;;;37.20;19.73;;;1.60;99.90;;;;;;5164105;28;20544;-50
2022/03/09 01:57:28;;;;;;;38.37;20.10;;;1.60;99.90;;;;;;5162669;28;20464;-50
2022/03/09 02:00:00;;;;;;;33.53;19.37;;;1.60;99.90;;;;;;5162880;28;20647;-50
2022/03/09 02:02:30;;;;;;;44.90;19.90;;;1.50;99.90;;;;;;5165566;28;20466;-49
2022/03/09 02:05:01;;;;;;;39.20;20.23;;;1.50;99.90;;;;;;5161272;28;20453;-49
2022/03/09 02:10:23;;;;;;;37.30;21.10;;;1.50;99.90;;;;;;5165012;28;20222;-51
2022/03/09 02:12:54;;;;;;;46.83;21.67;;;1.60;99.90;;;;;;5165475;28;20442;-50
2022/03/09 02:15:24;;;;;;;43.10;20.10;;;1.60;99.90;;;;;;5164509;28;20451;-47
2022/03/09 02:17:55;;;;;;;40.07;19.90;;;1.60;99.90;;;;;;5161823;28;20297;-49
2022/03/09 02:20:26;;;;;;;39.00;19.80;;;1.50;99.90;;;;;;5164319;28;20333;-49
2022/03/09 02:22:58;;;;;;;40.17;20.20;;;1.50;99.90;;;;;;5166427;28;20208;-51
2022/03/09 02:25:29;;;;;;;36.53;19.47;;;1.50;99.90;;;;;;5163008;28;20425;-49
2022/03/09 02:28:01;;;;;;;36.03;19.03;;;1.50;99.90;;;;;;5170564;28;20861;-48
2022/03/09 02:30:32;;;;;;;40.03;19.43;;;1.40;99.90;;;;;;5163212;28;20181;-49
2022/03/09 02:33:03;;;;;;;42.77;23.53;;;1.40;99.90;;;;;;5158566;28;20960;-52
2022/03/09 02:35:33;;;;;;;49.70;22.43;;;1.40;99.90;;;;;;5163310;28;20189;-51
2022/03/09 02:38:04;;;;;;;42.33;21.70;;;1.40;99.90;;;;;;5166962;28;20479;-50
2022/03/09 02:40:34;;;;;;;45.90;20.90;;;1.40;99.90;;;;;;5162317;28;20192;-49
2022/03/09 02:43:05;;;;;;;43.40;21.13;;;1.40;99.90;;;;;;5167467;28;20212;-50
2022/03/09 02:45:36;;;;;;;41.97;20.63;;;1.40;99.90;;;;;;5170032;28;20242;-49
2022/03/09 02:48:06;;;;;;;40.63;19.60;;;1.40;99.90;;;;;;5165521;28;20701;-49
2022/03/09 02:50:36;;;;;;;36.73;21.03;;;1.40;99.90;;;;;;5170015;28;20216;-49
2022/03/09 02:53:07;;;;;;;36.83;18.50;;;1.40;99.90;;;;;;5166458;28;20640;-51
2022/03/09 02:55:39;;;;;;;36.37;20.50;;;1.40;99.90;;;;;;5164625;28;20183;-48
2022/03/09 02:58:09;;;;;;;41.73;19.80;;;1.40;99.90;;;;;;5164193;28;20604;-49
2022/03/09 03:00:40;;;;;;;42.53;20.70;;;1.40;99.90;;;;;;5173547;28;20443;-50
2022/03/09 03:03:10;;;;;;;36.73;19.67;;;1.40;99.90;;;;;;5172353;28;20237;-50
2022/03/09 03:05:41;;;;;;;38.17;20.53;;;1.40;99.90;;;;;;5162517;28;20645;-51
2022/03/09 03:08:13;;;;;;;52.83;20.83;;;1.30;99.90;;;;;;5168993;28;20197;-50
2022/03/09 03:10:43;;;;;;;39.37;19.53;;;1.30;99.90;;;;;;5161163;28;20468;-51
2022/03/09 03:13:14;;;;;;;32.37;18.40;;;1.30;99.90;;;;;;5159488;28;20843;-48
2022/03/09 03:15:44;;;;;;;39.83;18.80;;;1.20;99.90;;;;;;5159866;28;20193;-49
2022/03/09 03:18:15;;;;;;;37.37;18.50;;;1.20;99.90;;;;;;5160114;28;20575;-50
2022/03/09 03:20:45;;;;;;;33.30;17.67;;;1.10;99.90;;;;;;5167509;28;20192;-52
2022/03/09 03:23:16;;;;;;;30.47;17.40;;;1.10;99.90;;;;;;5160818;28;20288;-49
2022/03/09 03:25:47;;;;;;;33.60;17.33;;;1.10;99.90;;;;;;5152616;28;20199;-49
2022/03/09 03:28:18;;;;;;;30.53;17.03;;;1.00;99.90;;;;;;5164238;28;20204;-50
2022/03/09 03:30:50;;;;;;;30.50;15.60;;;0.90;99.90;;;;;;5163468;28;20185;-50
2022/03/09 03:33:22;;;;;;;33.00;17.50;;;0.90;99.90;;;;;;5165905;28;20450;-51
2022/03/09 03:35:53;;;;;;;27.57;16.23;;;0.90;99.90;;;;;;5169769;28;20428;-50
2022/03/09 03:38:23;;;;;;;24.93;14.80;;;0.80;99.90;;;;;;5157978;28;20998;-49
2022/03/09 03:40:54;;;;;;;28.93;16.07;;;0.80;99.90;;;;;;5162802;28;20444;-49
2022/03/09 03:43:24;;;;;;;26.43;16.10;;;0.70;99.90;;;;;;5162968;28;20302;-48
2022/03/09 03:45:55;;;;;;;29.30;16.13;;;0.70;99.90;;;;;;5166825;28;20625;-50
2022/03/09 03:48:25;;;;;;;24.97;15.60;;;0.60;99.90;;;;;;5166651;28;20209;-50
2022/03/09 03:50:56;;;;;;;25.87;15.30;;;0.60;99.90;;;;;;5160062;28;20189;-50
2022/03/09 03:53:26;;;;;;;32.33;16.73;;;0.60;99.90;;;;;;5146977;28;20251;-54
2022/03/09 03:55:58;;;;;;;31.33;17.07;;;0.60;99.90;;;;;;5165967;28;20201;-49
2022/03/09 03:58:28;;;;;;;34.50;19.03;;;0.60;99.90;;;;;;5164623;28;20297;-49
2022/03/09 04:00:59;;;;;;;34.57;18.50;;;0.60;99.90;;;;;;5168096;28;20475;-50
2022/03/09 04:03:29;;;;;;;33.30;17.93;;;0.70;99.90;;;;;;5167801;28;20202;-50
2022/03/09 04:06:00;;;;;;;31.57;16.80;;;0.70;99.90;;;;;;5166937;28;20197;-49
2022/03/09 04:08:31;;;;;;;35.37;17.30;;;0.70;99.90;;;;;;5160419;28;20291;-50
2022/03/09 04:11:01;;;;;;;39.73;17.80;;;0.70;99.90;;;;;;5164491;28;20526;-49
2022/03/09 04:13:32;;;;;;;36.07;19.70;;;0.70;99.90;;;;;;5161799;28;20607;-47
2022/03/09 04:16:03;;;;;;;32.17;18.50;;;0.70;99.90;;;;;;5162062;28;20209;-49
2022/03/09 04:18:33;;;;;;;31.97;16.67;;;0.80;99.90;;;;;;5161838;28;20216;-50
2022/03/09 04:21:04;;;;;;;34.57;17.40;;;0.80;99.90;;;;;;5173737;28;20192;-48
2022/03/09 04:23:34;;;;;;;30.43;15.73;;;0.80;99.90;;;;;;5163419;28;20230;-50
2022/03/09 04:26:06;;;;;;;28.47;15.37;;;0.80;99.90;;;;;;5154560;28;20269;-49
2022/03/09 04:28:37;;;;;;;28.83;16.60;;;0.90;99.90;;;;;;5164151;28;20369;-51
2022/03/09 04:31:07;;;;;;;27.93;15.93;;;1.00;99.90;;;;;;5166858;28;20444;-49
2022/03/09 04:33:38;;;;;;;30.73;15.70;;;0.90;99.90;;;;;;5163939;28;20645;-52
2022/03/09 04:36:09;;;;;;;32.93;16.63;;;1.00;99.90;;;;;;5165975;28;20188;-48
2022/03/09 04:38:40;;;;;;;28.03;14.10;;;1.00;99.90;;;;;;5148300;28;20748;-50
2022/03/09 04:41:10;;;;;;;28.70;15.10;;;1.10;99.90;;;;;;5168150;28;20444;-50
2022/03/09 04:43:41;;;;;;;30.10;14.10;;;1.10;99.90;;;;;;5166202;28;20672;-50
2022/03/09 04:46:12;;;;;;;23.43;13.43;;;1.10;99.90;;;;;;5162641;28;20190;-50
2022/03/09 04:48:43;;;;;;;24.20;14.23;;;1.10;99.90;;;;;;5167669;28;20562;-51
2022/03/09 04:51:14;;;;;;;27.00;12.80;;;1.20;99.90;;;;;;5164674;28;20192;-51
2022/03/09 04:53:44;;;;;;;33.00;12.73;;;1.20;99.90;;;;;;5161266;28;21530;-51
2022/03/09 04:56:15;;;;;;;22.90;13.13;;;1.20;99.90;;;;;;5163541;28;20238;-50
2022/03/09 04:58:45;;;;;;;22.07;13.20;;;1.20;99.90;;;;;;5171569;28;20308;-50
2022/03/09 05:01:16;;;;;;;26.20;12.97;;;1.20;99.90;;;;;;5167737;28;20208;-50
2022/03/09 05:03:46;;;;;;;26.97;13.93;;;1.20;99.90;;;;;;5169934;28;20200;-50
2022/03/09 05:06:17;;;;;;;12.83;10.20;;;1.20;99.90;;;;;;5169119;28;20188;-50
2022/03/09 05:08:48;;;;;;;25.13;11.87;;;1.20;99.90;;;;;;5163439;28;20641;-50
2022/03/09 05:11:18;;;;;;;20.53;11.57;;;1.20;99.90;;;;;;5160624;28;20230;-52
2022/03/09 05:13:49;;;;;;;22.83;12.30;;;1.20;99.90;;;;;;5160877;28;20609;-51
2022/03/09 05:16:19;;;;;;;19.10;10.70;;;1.20;99.90;;;;;;5165535;28;20187;-50
2022/03/09 05:18:50;;;;;;;24.13;11.10;;;1.20;99.90;;;;;;5157377;28;20205;-50
2022/03/09 05:21:20;;;;;;;18.53;11.23;;;1.20;99.90;;;;;;5158249;28;20180;-50
2022/03/09 05:23:51;;;;;;;15.60;9.90;;;1.20;99.90;;;;;;5164671;28;20193;-51
2022/03/09 05:26:21;;;;;;;23.23;10.97;;;1.20;99.90;;;;;;5160828;28;20256;-50
2022/03/09 05:28:53;;;;;;;13.60;9.70;;;1.20;99.90;;;;;;5159336;28;20954;-50
2022/03/09 05:31:24;;;;;;;19.07;11.20;;;1.20;99.90;;;;;;5164019;28;20185;-50
2022/03/09 05:33:55;;;;;;;18.53;11.80;;;1.20;99.90;;;;;;5164119;28;20438;-51
2022/03/09 05:36:25;;;;;;;17.80;9.70;;;1.20;99.90;;;;;;5185693;23;21042;-47
2022/03/09 05:38:56;;;;;;;19.53;11.67;;;1.20;99.90;;;;;;5197680;28;20235;-48
2022/03/09 05:41:26;;;;;;;21.83;11.40;;;1.20;99.90;;;;;;5194458;28;20186;-48
2022/03/09 05:43:57;;;;;;;13.67;10.77;;;1.10;99.90;;;;;;5197062;28;20707;-49
2022/03/09 05:46:28;;;;;;;15.83;10.87;;;1.20;99.90;;;;;;5186050;28;20200;-51
2022/03/09 05:48:59;;;;;;;15.67;10.90;;;1.20;99.90;;;;;;5180642;28;20184;-47
2022/03/09 05:51:30;;;;;;;22.37;11.37;;;1.20;99.90;;;;;;5177625;28;20177;-47
2022/03/09 05:54:00;;;;;;;18.90;11.20;;;1.20;99.90;;;;;;5194771;28;20435;-48
2022/03/09 05:56:31;;;;;;;21.03;10.60;;;1.20;99.90;;;;;;5176237;28;20201;-49
2022/03/09 05:59:01;;;;;;;23.47;10.90;;;1.30;99.90;;;;;;5179155;28;20576;-48
2022/03/09 06:01:32;;;;;;;16.67;10.23;;;1.40;99.90;;;;;;5179941;28;20202;-49
2022/03/09 06:04:03;;;;;;;19.37;11.30;;;1.50;99.90;;;;;;5181331;28;20234;-47
2022/03/09 06:06:33;;;;;;;15.60;9.40;;;1.50;99.90;;;;;;5181356;28;20204;-47
2022/03/09 06:09:04;;;;;;;22.40;11.50;;;1.60;99.90;;;;;;5181254;28;20440;-47
2022/03/09 06:11:35;;;;;;;12.17;9.30;;;1.80;99.90;;;;;;5180219;28;20514;-46
2022/03/09 06:14:05;;;;;;;20.93;10.17;;;2.20;99.90;;;;;;5179635;28;20550;-48
2022/03/09 06:16:36;;;;;;;19.63;10.93;;;2.40;99.90;;;;;;5180873;28;20237;-48
2022/03/09 06:19:06;;;;;;;25.87;10.27;;;2.50;99.90;;;;;;5161625;28;20256;-47
2022/03/09 06:21:37;;;;;;;16.70;10.00;;;2.70;99.90;;;;;;5180446;28;20184;-49
2022/03/09 06:24:08;;;;;;;18.87;11.40;;;2.80;99.90;;;;;;5181315;28;20328;-50
2022/03/09 06:26:38;;;;;;;19.93;11.23;;;3.00;99.90;;;;;;5179075;28;20201;-49
2022/03/09 06:29:10;;;;;;;14.67;10.40;;;3.10;99.90;;;;;;5277441;27;20179;-48
2022/03/09 06:31:42;;;;;;;14.80;9.97;;;3.20;99.90;;;;;;5169668;28;20185;-47
2022/03/09 06:34:13;;;;;;;14.77;9.40;;;3.40;99.90;;;;;;5177952;28;20431;-50
2022/03/09 06:36:44;;;;;;;15.30;9.90;;;4.00;99.90;;;;;;5175094;28;20545;-51
2022/03/09 06:39:16;;;;;;;20.00;11.83;;;5.70;99.90;;;;;;5178931;28;20230;-48
2022/03/09 06:41:46;;;;;;;19.07;11.87;;;7.70;93.60;;;;;;5179228;28;20433;-49
2022/03/09 06:44:17;;;;;;;24.87;14.37;;;9.80;69.80;;;;;;5181505;28;20974;-48
2022/03/09 06:46:48;;;;;;;31.30;18.60;;;11.50;56.40;;;;;;5179330;28;20200;-48
2022/03/09 06:49:18;;;;;;;27.13;14.30;;;12.90;49.40;;;;;;5172609;28;20246;-50
2022/03/09 06:51:49;;;;;;;28.00;14.33;;;13.90;45.90;;;;;;5172603;28;20198;-49
2022/03/09 06:54:19;;;;;;;28.37;14.07;;;14.80;43.80;;;;;;5177835;28;20196;-47
2022/03/09 06:56:52;;;;;;;19.30;12.93;;;15.60;41.50;;;;;;5181546;28;20279;-48
2022/03/09 06:59:22;;;;;;;33.03;13.30;;;16.40;39.60;;;;;;5183803;28;20180;-50
2022/03/09 07:01:53;;;;;;;22.87;12.10;;;17.10;37.90;;;;;;5178192;28;20442;-49
2022/03/09 07:04:23;;;;;;;24.57;13.03;;;17.70;36.40;;;;;;5174886;28;20635;-52
2022/03/09 07:06:54;;;;;;;24.47;12.70;;;18.20;35.50;;;;;;5176959;28;20200;-47
2022/03/09 07:09:24;;;;;;;23.07;12.83;;;18.50;34.30;;;;;;5179198;28;20671;-50
2022/03/09 07:11:57;;;;;;;26.60;14.07;;;18.80;33.50;;;;;;5173909;28;20197;-50
2022/03/09 07:14:27;;;;;;;17.60;10.60;;;19.10;33.30;;;;;;5179238;28;20188;-53
2022/03/09 07:16:58;;;;;;;24.10;11.80;;;19.30;32.00;;;;;;5179839;28;20799;-50
2022/03/09 07:19:28;;;;;;;18.20;11.50;;;19.50;31.70;;;;;;5180387;28;20208;-49
2022/03/09 07:21:59;;;;;;;18.83;10.93;;;19.70;31.20;;;;;;5173761;28;20196;-49
2022/03/09 07:24:30;;;;;;;19.63;11.40;;;20.00;31.00;;;;;;5176179;28;20204;-48
2022/03/09 07:27:00;;;;;;;21.03;12.97;;;20.40;30.50;;;;;;5177754;28;20667;-48
2022/03/09 07:29:31;;;;;;;29.03;12.10;;;20.50;29.50;;;;;;5181396;28;20176;-46
2022/03/09 07:32:02;;;;;;;31.93;10.97;;;20.50;29.70;;;;;;5178047;28;20176;-47
2022/03/09 07:34:32;;;;;;;20.40;11.83;;;20.70;29.60;;;;;;5182156;28;20184;-48
2022/03/09 07:37:03;;;;;;;24.30;10.00;;;20.80;29.40;;;;;;5174948;28;20231;-46
2022/03/09 07:39:34;;;;;;;17.00;10.23;;;21.00;29.00;;;;;;5181273;28;20531;-48
2022/03/09 07:42:05;;;;;;;15.00;9.63;;;21.10;28.80;;;;;;5175333;28;20958;-49
2022/03/09 07:44:36;;;;;;;23.23;10.20;;;21.20;28.80;;;;;;5176411;28;20550;-48
2022/03/09 07:47:06;;;;;;;22.90;11.37;;;21.30;28.40;;;;;;5175966;28;22143;-49
2022/03/09 07:49:37;;;;;;;22.90;11.80;;;21.30;28.20;;;;;;5174296;28;20793;-48
2022/03/09 07:52:08;;;;;;;17.23;10.53;;;21.40;28.30;;;;;;5175141;28;20893;-47
2022/03/09 07:54:39;;;;;;;17.30;9.13;;;21.00;27.90;;;;;;5169505;28;20526;-51
2022/03/09 07:57:09;;;;;;;14.60;10.27;;;20.50;28.70;;;;;;5181401;28;20216;-48
2022/03/09 07:59:40;;;;;;;23.27;9.20;;;19.90;29.40;;;;;;5180327;28;20644;-55
2022/03/09 08:02:10;;;;;;;19.63;10.80;;;18.40;30.00;;;;;;5175989;28;20263;-48
2022/03/09 08:04:41;;;;;;;15.63;8.40;;;16.10;32.40;;;;;;5180120;28;20331;-47
2022/03/09 08:07:11;;;;;;;17.37;10.43;;;13.90;35.50;;;;;;5178173;28;20229;-48
2022/03/09 08:09:42;;;;;;;19.73;10.20;;;12.30;38.40;;;;;;5177485;28;20188;-50
2022/03/09 08:12:12;;;;;;;13.70;9.40;;;11.10;40.70;;;;;;5179927;28;20208;-50
2022/03/09 08:14:43;;;;;;;30.03;9.43;;;10.30;42.90;;;;;;5175017;28;20299;-47
2022/03/09 08:17:14;;;;;;;18.77;10.23;;;9.60;45.00;;;;;;5179001;28;20243;-48
2022/03/09 08:19:45;;;;;;;15.70;9.57;;;9.00;46.40;;;;;;5179531;28;20276;-48
2022/03/09 08:22:16;;;;;;;17.03;11.13;;;8.50;47.80;;;;;;5173549;28;20523;-48
2022/03/09 08:24:46;;;;;;;18.10;11.00;;;8.10;48.80;;;;;;5180910;28;20466;-48
2022/03/09 08:27:17;;;;;;;13.10;10.17;;;8.00;49.60;;;;;;5176488;28;20596;-49
2022/03/09 08:29:47;;;;;;;17.30;9.47;;;8.00;50.40;;;;;;5177000;28;20191;-48
2022/03/09 08:32:22;;;;;;;14.53;9.57;;;8.20;50.50;;;;;;5182495;28;20172;-48
2022/03/09 08:34:54;;;;;;;11.83;7.90;;;8.30;50.10;;;;;;5180458;28;20635;-48
2022/03/09 08:37:24;;;;;;;10.87;8.30;;;8.30;50.30;;;;;;5183439;28;20855;-48
2022/03/09 08:39:55;;;;;;;10.83;8.10;;;8.20;50.70;;;;;;5163290;28;20431;-53
2022/03/09 08:42:25;;;;;;;18.90;8.90;;;8.20;51.00;;;;;;5184753;28;20181;-48
2022/03/09 08:44:56;;;;;;;10.30;8.23;;;8.10;50.70;;;;;;5183449;28;20648;-47
2022/03/09 08:47:26;;;;;;;28.33;8.43;;;8.00;51.30;;;;;;5181548;28;20241;-47
2022/03/09 08:49:57;;;;;;;17.07;8.67;;;8.00;51.70;;;;;;5182362;28;20676;-47
2022/03/09 08:52:27;;;;;;;11.60;7.20;;;8.00;51.80;;;;;;5181820;28;20687;-48
2022/03/09 08:54:58;;;;;;;14.77;8.03;;;7.90;52.20;;;;;;5181477;28;20212;-47
2022/03/09 08:57:29;;;;;;;15.40;7.53;;;7.80;52.10;;;;;;5182914;28;20843;-52
2022/03/09 09:00:04;;;;;;;9.97;7.40;;;7.80;52.10;;;;;;5184308;28;20225;-48
2022/03/09 09:02:35;;;;;;;15.10;8.20;;;7.80;52.90;;;;;;5182870;28;20934;-50
2022/03/09 09:05:06;;;;;;;10.83;6.90;;;8.00;53.60;;;;;;5179848;28;20427;-46
2022/03/09 09:07:36;;;;;;;7.80;5.67;;;8.00;52.50;;;;;;5181520;28;20180;-49
2022/03/09 09:10:07;;;;;;;8.87;6.80;;;8.00;52.60;;;;;;5173550;28;20431;-47
2022/03/09 09:12:38;;;;;;;10.60;5.90;;;8.10;52.90;;;;;;5171844;28;20188;-48
2022/03/09 09:15:09;;;;;;;13.83;6.93;;;8.20;52.80;;;;;;5178898;28;20439;-48
2022/03/09 09:17:40;;;;;;;10.00;7.17;;;8.20;52.40;;;;;;5180843;28;20476;-50
2022/03/09 09:20:11;;;;;;;7.87;6.23;;;8.30;52.50;;;;;;5173805;28;20254;-49
2022/03/09 09:22:43;;;;;;;17.00;6.77;;;8.30;52.60;;;;;;5166404;28;23062;-49
2022/03/09 09:25:13;;;;;;;13.10;6.63;;;8.40;52.00;;;;;;5177130;28;20429;-50
2022/03/09 09:27:44;;;;;;;11.67;6.63;;;8.50;51.70;;;;;;5180176;28;20436;-49
2022/03/09 09:30:15;;;;;;;10.63;6.80;;;8.50;51.50;;;;;;5183619;28;20207;-50
2022/03/09 09:32:47;;;;;;;14.13;7.20;;;8.60;51.60;;;;;;5179977;28;20196;-49
2022/03/09 09:35:17;;;;;;;14.10;6.63;;;8.70;52.20;;;;;;5183244;28;20463;-49
2022/03/09 09:37:48;;;;;;;13.43;6.67;;;8.70;51.30;;;;;;5179033;28;20466;-48
2022/03/09 09:40:19;;;;;;;7.60;6.03;;;8.80;51.60;;;;;;5180523;28;20189;-48
2022/03/09 09:42:50;;;;;;;13.57;6.30;;;8.80;50.90;;;;;;5181493;28;20292;-48
2022/03/09 09:45:21;;;;;;;6.23;5.23;;;8.90;50.90;;;;;;5181325;28;20439;-50
2022/03/09 09:47:51;;;;;;;15.20;7.63;;;8.80;50.70;;;;;;5179692;28;20482;-48
2022/03/09 09:50:22;;;;;;;9.30;5.33;;;8.90;51.00;;;;;;5178918;28;20374;-48
2022/03/09 09:52:53;;;;;;;7.80;5.37;;;9.10;50.80;;;;;;5180115;28;20199;-49
2022/03/09 09:55:27;;;;;;;5.83;4.90;;;9.30;50.90;;;;;;5181010;28;20253;-48
2022/03/09 09:57:59;;;;;;;8.00;5.60;;;9.40;50.80;;;;;;5173122;28;20217;-48
2022/03/09 10:00:30;;;;;;;12.10;5.60;;;9.60;50.10;;;;;;5179983;28;20962;-49
2022/03/09 10:03:01;;;;;;;6.37;4.57;;;9.50;47.80;;;;;;5177073;28;20459;-48
2022/03/09 10:05:32;;;;;;;10.20;5.00;;;9.50;48.10;;;;;;5178293;28;20598;-48
2022/03/09 10:08:06;;;;;;;7.63;5.10;;;9.40;48.00;;;;;;5181119;28;20506;-48
2022/03/09 10:10:53;;;;;;;8.23;5.40;;;9.40;47.70;;;;;;5176081;28;20183;-49
2022/03/09 10:13:35;;;;;;;10.10;5.77;;;9.40;47.90;;;;;;5180428;28;20432;-48
2022/03/09 10:16:18;;;;;;;9.53;4.73;;;9.50;47.80;;;;;;5165622;28;20459;-48
2022/03/09 10:18:56;;;;;;;5.70;4.47;;;9.60;47.40;;;;;;5178433;28;20522;-48
2022/03/09 10:21:30;;;;;;;6.20;5.17;;;9.70;47.30;;;;;;5178073;28;20465;-49
2022/03/09 10:24:03;;;;;;;8.73;5.63;;;9.60;46.40;;;;;;5177780;28;20463;-47
2022/03/09 10:26:38;;;;;;;5.70;4.53;;;9.50;46.90;;;;;;5180198;28;20551;-48
2022/03/09 10:29:18;;;;;;;12.33;6.40;;;9.60;46.50;;;;;;5183919;28;20434;-48
2022/03/09 10:31:50;;;;;;;8.40;5.50;;;9.70;46.20;;;;;;5169056;28;21210;-48
2022/03/09 10:34:26;;;;;;;13.90;6.70;;;9.90;46.40;;;;;;5180337;28;20492;-49
2022/03/09 10:37:02;;;;;;;12.57;5.87;;;10.00;45.50;;;;;;5173322;28;20527;-48
2022/03/09 10:39:36;;;;;;;6.90;5.43;;;10.10;44.60;;;;;;5178023;28;20442;-47
2022/03/09 10:42:24;;;;;;;11.67;6.73;;;10.20;45.00;;;;;;5180425;28;20529;-46
2022/03/09 10:44:55;;;;;;;11.97;5.90;;;10.10;44.00;;;;;;5179237;28;20982;-53
2022/03/09 10:47:32;;;;;;;9.30;5.00;;;10.10;44.50;;;;;;5178211;28;20466;-48
2022/03/09 10:50:17;;;;;;;8.40;5.17;;;10.00;44.80;;;;;;5181586;28;20263;-49
2022/03/09 10:53:01;;;;;;;8.30;5.97;;;10.00;44.70;;;;;;5179665;28;20434;-48
2022/03/09 10:55:36;;;;;;;8.10;5.30;;;10.10;44.80;;;;;;5178698;28;20455;-48
2022/03/09 10:58:19;;;;;;;8.60;5.30;;;10.10;44.50;;;;;;5180973;28;20446;-48
2022/03/09 11:00:52;;;;;;;5.57;5.00;;;10.00;44.40;;;;;;5178058;28;20988;-49
2022/03/09 11:03:33;;;;;;;7.40;5.37;;;9.90;45.40;;;;;;5163798;28;20457;-48
2022/03/09 11:06:05;;;;;;;8.40;4.97;;;9.90;45.60;;;;;;5176364;28;20823;-48
2022/03/09 11:08:37;;;;;;;9.27;4.83;;;10.00;44.80;;;;;;5179881;28;20512;-49
2022/03/09 11:11:09;;;;;;;6.80;5.60;;;10.10;44.40;;;;;;5177583;28;20821;-48
2022/03/09 11:13:39;;;;;;;5.20;4.80;;;10.20;43.60;;;;;;5176239;28;20947;-48
2022/03/09 11:16:10;;;;;;;6.37;4.83;;;10.30;43.40;;;;;;5165521;28;20466;-49
2022/03/09 11:18:42;;;;;;;7.97;5.43;;;10.30;43.00;;;;;;5179307;28;20181;-49
2022/03/09 11:21:14;;;;;;;6.83;5.10;;;10.30;43.00;;;;;;5182658;28;20831;-50
2022/03/09 11:23:44;;;;;;;9.63;5.30;;;10.30;43.30;;;;;;5178732;28;20881;-49
2022/03/09 11:26:23;;;;;;;11.33;5.33;;;10.30;43.30;;;;;;5177840;28;20466;-51
2022/03/09 11:29:03;;;;;;;13.17;5.37;;;10.40;43.20;;;;;;5181372;28;20244;-49
2022/03/09 11:31:46;;;;;;;7.03;5.47;;;10.50;43.00;;;;;;5177939;28;20435;-49
2022/03/09 11:34:43;;;;;;;9.37;4.90;;;10.50;42.20;;;;;;5178010;28;20544;-49
2022/03/09 11:37:17;;;;;;;6.57;4.77;;;10.40;42.30;;;;;;5180779;28;20474;-48
2022/03/09 11:40:06;;;;;;;4.23;3.90;;;10.50;42.40;;;;;;5179064;28;20823;-48
2022/03/09 11:42:42;;;;;;;9.10;5.43;;;10.50;41.70;;;;;;5177022;28;20435;-48
2022/03/09 11:45:29;;;;;;;10.13;4.53;;;10.40;41.60;;;;;;5187234;28;20438;-48
2022/03/09 11:48:07;;;;;;;8.87;5.47;;;10.50;41.90;;;;;;5175304;28;20663;-49
2022/03/09 11:51:04;;;;;;;12.37;5.70;;;10.60;42.10;;;;;;5182357;28;20420;-48
2022/03/09 11:53:37;;;;;;;8.17;4.83;;;10.70;41.90;;;;;;5180547;28;20427;-49
2022/03/09 11:56:29;;;;;;;4.30;3.77;;;10.80;40.50;;;;;;5177173;28;20797;-50
2022/03/09 11:59:17;;;;;;;4.47;4.13;;;10.90;40.30;;;;;;5180151;28;20446;-49
2022/03/09 12:02:03;;;;;;;7.20;4.07;;;10.80;39.50;;;;;;5181143;28;20427;-48
2022/03/09 12:04:40;;;;;;;8.77;5.13;;;10.70;40.00;;;;;;5182686;28;21093;-48
2022/03/09 12:07:12;;;;;;;6.10;4.23;;;10.90;40.60;;;;;;5183014;28;20872;-49
2022/03/09 12:10:00;;;;;;;6.50;4.80;;;10.80;40.40;;;;;;5183712;28;20789;-49
2022/03/09 12:12:33;;;;;;;7.13;5.53;;;10.80;41.60;;;;;;5182318;28;20439;-47
2022/03/09 12:15:10;;;;;;;7.97;5.40;;;10.90;41.20;;;;;;5193978;28;20435;-51
2022/03/09 12:17:47;;;;;;;15.97;5.60;;;11.00;40.20;;;;;;5183860;28;20546;-49
2022/03/09 12:20:23;;;;;;;14.50;6.20;;;11.10;40.10;;;;;;5178222;28;20443;-51
2022/03/09 12:22:57;;;;;;;8.83;5.17;;;11.00;39.40;;;;;;5180515;28;20479;-48
2022/03/09 12:25:51;;;;;;;10.10;5.63;;;10.90;39.00;;;;;;5180824;28;20661;-47
2022/03/09 12:28:24;;;;;;;5.20;3.67;;;10.90;38.10;;;;;;5177842;28;20423;-49
2022/03/09 12:31:17;;;;;;;5.03;4.47;;;10.70;37.80;;;;;;5181348;28;22039;-49
2022/03/09 12:33:53;;;;;;;8.77;4.80;;;10.70;37.20;;;;;;5180186;28;20511;-50
2022/03/09 12:36:25;;;;;;;11.00;5.17;;;10.70;37.00;;;;;;5182279;28;20530;-47
2022/03/09 12:39:05;;;;;;;6.93;4.20;;;10.70;37.20;;;;;;5180950;28;20859;-51
2022/03/09 12:41:39;;;;;;;6.73;5.30;;;10.80;37.00;;;;;;5176925;28;20487;-47
2022/03/09 12:44:17;;;;;;;5.70;5.13;;;10.80;37.70;;;;;;5182469;28;20458;-47
2022/03/09 12:46:50;;;;;;;7.73;4.53;;;10.70;38.10;;;;;;5182263;28;20469;-48
2022/03/09 12:49:31;;;;;;;11.17;5.57;;;10.70;38.50;;;;;;5179206;28;20426;-49
2022/03/09 12:52:15;;;;;;;6.20;5.20;;;10.70;38.10;;;;;;5176712;28;21398;-47
2022/03/09 12:54:55;;;;;;;10.67;6.57;;;10.80;38.20;;;;;;5181417;28;20448;-48
2022/03/09 12:57:28;;;;;;;8.40;5.60;;;11.00;37.90;;;;;;5179420;28;20474;-48
2022/03/09 13:00:13;;;;;;;6.77;5.87;;;11.00;37.20;;;;;;5182265;28;20435;-49
2022/03/09 13:02:52;;;;;;;7.00;5.33;;;10.90;36.80;;;;;;5178144;28;20427;-50
2022/03/09 13:05:28;;;;;;;13.47;6.33;;;11.00;38.00;;;;;;5183068;28;21041;-50
2022/03/09 13:08:04;;;;;;;9.80;5.60;;;11.00;37.20;;;;;;5183922;28;20488;-48
2022/03/09 13:10:44;;;;;;;10.53;5.87;;;11.10;37.00;;;;;;5180348;28;20448;-49